createdAt,value
2022-12-29T00:00:57.702Z,100377.45
2022-12-29T00:02:00.144Z,100377.45
2022-12-29T00:03:03.703Z,100391.52
2022-12-29T00:04:11.365Z,100395.22
2022-12-29T00:05:10.884Z,100401.50
2022-12-29T00:06:14.772Z,100396.24
2022-12-29T00:07:17.820Z,100397.22
2022-12-29T00:08:24.038Z,100396.42
2022-12-29T00:09:27.626Z,100396.52
2022-12-29T00:10:30.715Z,100397.36
2022-12-29T00:11:33.025Z,100392.90
2022-12-29T00:12:54.023Z,100394.69
2022-12-29T00:14:19.235Z,100398.33
2022-12-29T00:15:40.523Z,100395.66
2022-12-29T00:16:49.965Z,100388.41
2022-12-29T00:17:54.638Z,100391.78
2022-12-29T00:18:58.163Z,100389.78
2022-12-29T00:20:19.719Z,100394.95
2022-12-29T00:21:42.045Z,100392.05
2022-12-29T00:23:03.934Z,100391.02
2022-12-29T00:24:28.029Z,100395.24
2022-12-29T00:25:49.553Z,100393.33
2022-12-29T00:27:28.375Z,100395.91
2022-12-29T00:28:50.227Z,100395.06
2022-12-29T00:30:11.210Z,100394.13
2022-12-29T00:31:33.045Z,100403.94
2022-12-29T00:32:54.662Z,100404.82
2022-12-29T00:34:17.725Z,100391.45
2022-12-29T00:36:40.825Z,100389.87
2022-12-29T00:38:04.264Z,100391.36
2022-12-29T00:39:29.462Z,100387.80
2022-12-29T00:40:51.054Z,100393.06
2022-12-29T00:42:16.325Z,100384.10
2022-12-29T00:43:39.749Z,100392.03
2022-12-29T00:44:44.143Z,100381.34
2022-12-29T00:45:47.738Z,100384.02
2022-12-29T00:46:51.053Z,100375.99
2022-12-29T00:47:54.693Z,100374.11
2022-12-29T00:49:18.075Z,100381.10
2022-12-29T00:50:20.867Z,100380.13
2022-12-29T00:51:24.141Z,100372.02
2022-12-29T00:52:27.527Z,100368.41
2022-12-29T00:53:30.476Z,100364.78
2022-12-29T00:55:47.454Z,100363.90
2022-12-29T00:56:54.012Z,100366.24
2022-12-29T00:57:57.117Z,100359.86
2022-12-29T00:59:03.957Z,100361.59
2022-12-29T01:00:08.290Z,100363.20
2022-12-29T01:01:12.401Z,100357.80
2022-12-29T01:02:16.468Z,100362.16
2022-12-29T01:03:19.803Z,100357.70
2022-12-29T01:04:24.606Z,100357.61
2022-12-29T01:05:27.126Z,100350.44
2022-12-29T01:06:29.870Z,100357.52
2022-12-29T01:07:33.181Z,100356.58
2022-12-29T01:08:38.998Z,100351.12
2022-12-29T01:09:59.910Z,100358.18
2022-12-29T01:11:10.783Z,100352.83
2022-12-29T01:12:13.461Z,100352.83
2022-12-29T01:13:18.330Z,100350.16
2022-12-29T01:14:20.885Z,100352.83
2022-12-29T01:15:23.322Z,100359.91
2022-12-29T01:16:28.403Z,100358.12
2022-12-29T01:17:31.140Z,100345.59
2022-12-29T01:18:33.632Z,100343.77
2022-12-29T01:19:36.668Z,100341.00
2022-12-29T01:20:40.313Z,100340.16
2022-12-29T01:21:43.055Z,100345.41
2022-12-29T01:22:45.833Z,100337.38
2022-12-29T01:23:48.378Z,100345.31
2022-12-29T01:24:51.120Z,100341.70
2022-12-29T01:25:54.063Z,100338.17
2022-12-29T01:26:56.643Z,100344.38
2022-12-29T01:27:59.911Z,100345.22
2022-12-29T01:29:02.654Z,100346.10
2022-12-29T01:30:06.592Z,100346.95
2022-12-29T01:31:11.115Z,100338.08
2022-12-29T01:32:14.775Z,100345.13
2022-12-29T01:33:18.691Z,100337.98
2022-12-29T01:34:21.849Z,100333.48
2022-12-29T01:35:25.125Z,100325.45
2022-12-29T01:36:28.021Z,100334.36
2022-12-29T01:37:31.518Z,100318.31
2022-12-29T01:38:35.245Z,100322.72
2022-12-29T01:39:37.623Z,100319.16
2022-12-29T01:40:47.081Z,100312.02
2022-12-29T01:41:51.101Z,100314.70
2022-12-29T01:42:53.569Z,100307.55
2022-12-29T01:45:13.689Z,100317.59
2022-12-29T01:46:38.318Z,100312.81
2022-12-29T01:47:50.087Z,100315.48
2022-12-29T01:50:18.567Z,100310.34
2022-12-29T01:51:23.233Z,100308.31
2022-12-29T01:52:27.238Z,100310.13
2022-12-29T01:53:32.027Z,100308.41
2022-12-29T01:54:40.136Z,100313.75
2022-12-29T01:55:49.125Z,100309.25
2022-12-29T01:56:54.470Z,100309.25
2022-12-29T01:57:56.907Z,100306.58
2022-12-29T01:59:03.578Z,100303.91
2022-12-29T02:00:11.075Z,100302.11
2022-12-29T02:01:17.579Z,100298.55
2022-12-29T02:02:22.282Z,100296.86
2022-12-29T02:03:26.763Z,100295.88
2022-12-29T02:04:30.819Z,100300.38
2022-12-29T02:07:00.632Z,100284.53
2022-12-29T02:08:03.220Z,100291.50
2022-12-29T02:09:06.404Z,100283.48
2022-12-29T02:10:09.206Z,100287.00
2022-12-29T02:11:11.810Z,100281.91
2022-12-29T02:12:15.763Z,100281.91
2022-12-29T02:13:19.999Z,100289.58
2022-12-29T02:14:22.560Z,100292.25
2022-12-29T02:15:54.559Z,100290.47
2022-12-29T02:17:13.761Z,100296.66
2022-12-29T02:18:34.981Z,100279.77
2022-12-29T02:20:02.896Z,100289.58
2022-12-29T02:21:27.708Z,100287.00
2022-12-29T02:22:58.325Z,100287.95
2022-12-29T02:24:25.575Z,100281.81
2022-12-29T02:26:07.143Z,100289.84
2022-12-29T02:28:49.001Z,100287.69
2022-12-29T02:30:06.844Z,100284.83
2022-12-29T02:31:22.788Z,100284.93
2022-12-29T02:32:44.597Z,100279.67
2022-12-29T02:35:31.376Z,100280.86
2022-12-29T02:38:14.130Z,100279.98
2022-12-29T02:39:37.461Z,100278.92
2022-12-29T02:40:45.993Z,100280.71
2022-12-29T02:43:29.242Z,100274.63
2022-12-29T02:44:54.901Z,100277.94
2022-12-29T02:46:00.788Z,100278.83
2022-12-29T02:47:16.165Z,100266.39
2022-12-29T02:48:25.843Z,100274.33
2022-12-29T02:49:37.454Z,100273.48
2022-12-29T02:50:44.294Z,100268.13
2022-12-29T02:52:05.842Z,100264.51
2022-12-29T02:53:12.964Z,100263.63
2022-12-29T02:54:36.498Z,100262.69
2022-12-29T02:55:41.233Z,100265.36
2022-12-29T02:56:44.721Z,100257.33
2022-12-29T02:57:48.709Z,100256.39
2022-12-29T02:58:51.253Z,100260.01
2022-12-29T03:00:00.825Z,100256.39
2022-12-29T03:01:07.068Z,100258.97
2022-12-29T03:02:28.801Z,100261.64
2022-12-29T03:03:58.163Z,100257.14
2022-12-29T03:05:16.450Z,100261.55
2022-12-29T03:06:33.434Z,100258.88
2022-12-29T03:08:04.873Z,100256.20
2022-12-29T03:09:18.881Z,100254.47
2022-12-29T03:10:42.821Z,100255.34
2022-12-29T03:13:50.386Z,100241.52
2022-12-29T03:15:15.064Z,100226.09
2022-12-29T03:16:24.299Z,100227.06
2022-12-29T03:18:04.300Z,100235.16
2022-12-29T03:19:10.139Z,100227.13
2022-12-29T03:20:16.875Z,100231.62
2022-12-29T03:21:31.288Z,100233.45
2022-12-29T03:22:37.271Z,100227.23
2022-12-29T03:23:42.572Z,100227.23
2022-12-29T03:24:53.021Z,100228.95
2022-12-29T03:25:57.464Z,100223.61
2022-12-29T03:27:01.117Z,100223.51
2022-12-29T03:29:23.268Z,100224.63
2022-12-29T03:30:28.054Z,100222.56
2022-12-29T03:31:30.552Z,100218.95
2022-12-29T03:32:36.028Z,100228.66
2022-12-29T03:33:38.522Z,100230.39
2022-12-29T03:34:41.484Z,100226.78
2022-12-29T03:35:44.965Z,100228.50
2022-12-29T03:37:05.085Z,100232.88
2022-12-29T03:38:17.235Z,100218.56
2022-12-29T03:39:22.564Z,100222.97
2022-12-29T03:40:25.212Z,100219.34
2022-12-29T03:41:29.731Z,100225.54
2022-12-29T03:42:38.779Z,100220.13
2022-12-29T03:43:42.291Z,100217.52
2022-12-29T03:44:45.453Z,100214.84
2022-12-29T03:45:49.270Z,100218.30
2022-12-29T03:46:51.904Z,100214.68
2022-12-29T03:47:54.507Z,100224.43
2022-12-29T03:48:57.667Z,100219.94
2022-12-29T03:50:00.761Z,100225.28
2022-12-29T03:51:03.479Z,100224.34
2022-12-29T03:52:06.641Z,100228.74
2022-12-29T03:53:11.664Z,100226.06
2022-12-29T03:54:17.090Z,100222.70
2022-12-29T03:55:20.297Z,100222.70
2022-12-29T03:56:23.549Z,100214.94
2022-12-29T03:57:27.013Z,100233.90
2022-12-29T03:58:35.647Z,100232.95
2022-12-29T03:59:51.859Z,100227.60
2022-12-29T04:00:54.241Z,100236.47
2022-12-29T04:01:56.680Z,100232.07
2022-12-29T04:02:59.408Z,100230.27
2022-12-29T04:04:02.143Z,100218.14
2022-12-29T04:05:06.361Z,100231.13
2022-12-29T04:06:09.265Z,100234.65
2022-12-29T04:07:16.435Z,100226.63
2022-12-29T04:08:21.381Z,100228.35
2022-12-29T04:09:24.249Z,100220.33
2022-12-29T04:10:28.091Z,100223.87
2022-12-29T04:11:33.363Z,100224.73
2022-12-29T04:12:38.513Z,100214.13
2022-12-29T04:13:42.021Z,100223.00
2022-12-29T04:14:46.344Z,100219.38
2022-12-29T04:15:49.332Z,100215.85
2022-12-29T04:16:52.280Z,100215.85
2022-12-29T04:17:54.941Z,100218.53
2022-12-29T04:18:57.569Z,100214.03
2022-12-29T04:20:19.882Z,100212.20
2022-12-29T04:21:22.639Z,100212.20
2022-12-29T04:22:25.171Z,100218.53
2022-12-29T04:23:28.613Z,100220.33
2022-12-29T04:24:31.213Z,100210.50
2022-12-29T04:25:34.638Z,100212.30
2022-12-29T04:26:38.243Z,100204.27
2022-12-29T04:27:45.939Z,100204.27
2022-12-29T04:28:54.141Z,100212.30
2022-12-29T04:30:14.884Z,100209.63
2022-12-29T04:31:19.626Z,100209.63
2022-12-29T04:32:23.633Z,100206.95
2022-12-29T04:33:28.211Z,100204.27
2022-12-29T04:34:31.355Z,100205.22
2022-12-29T04:35:35.316Z,100205.22
2022-12-29T04:36:39.262Z,100206.20
2022-12-29T04:37:42.269Z,100213.24
2022-12-29T04:38:44.967Z,100208.88
2022-12-29T04:39:48.606Z,100211.45
2022-12-29T04:40:52.823Z,100204.27
2022-12-29T04:41:57.186Z,100208.77
2022-12-29T04:43:00.290Z,100207.89
2022-12-29T04:44:04.128Z,100214.13
2022-12-29T04:45:11.419Z,100213.18
2022-12-29T04:46:16.282Z,100201.59
2022-12-29T04:47:20.906Z,100208.67
2022-12-29T04:48:40.611Z,100203.33
2022-12-29T04:50:01.289Z,100203.42
2022-12-29T04:51:06.003Z,100204.27
2022-12-29T04:52:11.635Z,100201.59
2022-12-29T04:53:14.899Z,100206.09
2022-12-29T04:54:18.384Z,100205.22
2022-12-29T04:55:23.344Z,100201.70
2022-12-29T04:56:26.117Z,100199.87
2022-12-29T04:57:28.697Z,100201.70
2022-12-29T04:58:33.159Z,100193.67
2022-12-29T04:59:36.237Z,100188.31
2022-12-29T05:00:39.314Z,100195.39
2022-12-29T05:01:43.589Z,100190.05
2022-12-29T05:02:47.152Z,100196.24
2022-12-29T05:03:52.480Z,100199.80
2022-12-29T05:04:56.982Z,100197.13
2022-12-29T05:05:59.713Z,100204.27
2022-12-29T05:07:03.799Z,100197.13
2022-12-29T05:08:06.392Z,100197.13
2022-12-29T05:09:09.302Z,100197.97
2022-12-29T05:10:13.399Z,100200.65
2022-12-29T05:11:17.048Z,100193.47
2022-12-29T05:12:21.201Z,100196.14
2022-12-29T05:13:25.985Z,100199.70
2022-12-29T05:14:29.050Z,100200.55
2022-12-29T05:15:32.661Z,100205.91
2022-12-29T05:16:36.457Z,100211.25
2022-12-29T05:17:54.709Z,100209.42
2022-12-29T05:18:58.445Z,100202.28
2022-12-29T05:20:02.053Z,100198.72
2022-12-29T05:21:05.914Z,100193.37
2022-12-29T05:22:08.952Z,100188.02
2022-12-29T05:23:12.430Z,100193.37
2022-12-29T05:24:16.319Z,100183.65
2022-12-29T05:25:20.102Z,100188.12
2022-12-29T05:26:25.044Z,100199.70
2022-12-29T05:27:35.344Z,100197.88
2022-12-29T05:28:55.142Z,100199.70
2022-12-29T05:29:58.847Z,100199.70
2022-12-29T05:31:02.057Z,100201.50
2022-12-29T05:32:06.674Z,100201.50
2022-12-29T05:33:12.113Z,100206.00
2022-12-29T05:34:15.170Z,100197.97
2022-12-29T05:35:17.606Z,100205.16
2022-12-29T05:36:20.096Z,100200.65
2022-12-29T05:37:24.431Z,100202.48
2022-12-29T05:38:26.902Z,100203.33
2022-12-29T05:39:30.331Z,100200.65
2022-12-29T05:40:35.589Z,100205.16
2022-12-29T05:41:42.242Z,100211.34
2022-12-29T05:43:04.019Z,100206.00
2022-12-29T05:44:13.049Z,100203.33
2022-12-29T05:45:17.447Z,100201.59
2022-12-29T05:46:24.080Z,100198.92
2022-12-29T05:47:35.169Z,100196.24
2022-12-29T05:48:42.320Z,100206.95
2022-12-29T05:49:49.687Z,100204.38
2022-12-29T05:52:13.315Z,100195.69
2022-12-29T05:53:16.531Z,100193.67
2022-12-29T05:54:19.939Z,100192.82
2022-12-29T05:55:22.874Z,100197.29
2022-12-29T05:56:28.016Z,100184.80
2022-12-29T05:57:35.507Z,100187.47
2022-12-29T05:58:39.995Z,100179.34
2022-12-29T05:59:42.691Z,100182.02
2022-12-29T06:00:47.527Z,100172.17
2022-12-29T06:01:50.666Z,100178.39
2022-12-29T06:02:53.585Z,100182.77
2022-12-29T06:03:56.613Z,100180.97
2022-12-29T06:04:59.171Z,100180.97
2022-12-29T06:06:01.744Z,100182.67
2022-12-29T06:07:04.980Z,100183.65
2022-12-29T06:08:09.327Z,100182.67
2022-12-29T06:09:12.982Z,100177.32
2022-12-29T06:10:15.900Z,100185.34
2022-12-29T06:11:20.929Z,100185.34
2022-12-29T06:12:25.467Z,100180.88
2022-12-29T06:13:30.004Z,100186.22
2022-12-29T06:14:33.356Z,100181.72
2022-12-29T06:15:37.507Z,100179.05
2022-12-29T06:16:43.180Z,100171.02
2022-12-29T06:17:48.229Z,100176.37
2022-12-29T06:18:50.974Z,100182.61
2022-12-29T06:19:53.447Z,100175.42
2022-12-29T06:21:02.138Z,100177.25
2022-12-29T06:22:05.413Z,100178.95
2022-12-29T06:23:12.488Z,100186.13
2022-12-29T06:24:15.605Z,100185.18
2022-12-29T06:25:18.222Z,100187.85
2022-12-29T06:26:21.318Z,100185.18
2022-12-29T06:27:24.709Z,100189.66
2022-12-29T06:28:28.456Z,100186.03
2022-12-29T06:29:31.217Z,100186.88
2022-12-29T06:30:34.602Z,100186.03
2022-12-29T06:31:38.005Z,100188.60
2022-12-29T06:32:40.683Z,100188.60
2022-12-29T06:33:49.588Z,100190.43
2022-12-29T06:34:50.989Z,100188.60
2022-12-29T06:35:53.646Z,100194.84
2022-12-29T06:36:56.735Z,100184.13
2022-12-29T06:37:59.335Z,100190.33
2022-12-29T06:39:02.514Z,100186.81
2022-12-29T06:40:07.361Z,100193.86
2022-12-29T06:41:14.233Z,100186.70
2022-12-29T06:42:31.211Z,100191.18
2022-12-29T06:43:41.557Z,100190.23
2022-12-29T06:44:47.843Z,100191.18
2022-12-29T06:45:50.526Z,100195.69
2022-12-29T06:46:54.649Z,100204.56
2022-12-29T06:47:58.109Z,100206.39
2022-12-29T06:49:01.056Z,100208.22
2022-12-29T06:50:04.495Z,100209.91
2022-12-29T06:51:08.750Z,100205.54
2022-12-29T06:52:13.133Z,100197.52
2022-12-29T06:53:16.231Z,100199.20
2022-12-29T06:54:19.493Z,100201.98
2022-12-29T06:55:22.843Z,100197.52
2022-12-29T06:56:26.520Z,100201.98
2022-12-29T06:57:29.103Z,100212.69
2022-12-29T06:58:31.667Z,100207.33
2022-12-29T06:59:34.160Z,100203.71
2022-12-29T07:00:37.163Z,100196.63
2022-12-29T07:01:45.917Z,100192.16
2022-12-29T07:02:49.146Z,100204.66
2022-12-29T07:05:14.017Z,100200.38
2022-12-29T07:06:17.547Z,100204.66
2022-12-29T07:07:20.911Z,100201.98
2022-12-29T07:08:24.510Z,100195.69
2022-12-29T07:09:27.059Z,100198.36
2022-12-29T07:10:30.587Z,100209.06
2022-12-29T07:11:33.819Z,100213.47
2022-12-29T07:12:37.054Z,100216.14
2022-12-29T07:13:39.277Z,100216.14
2022-12-29T07:14:43.850Z,100208.97
2022-12-29T07:15:46.875Z,100211.64
2022-12-29T07:16:49.521Z,100200.94
2022-12-29T07:17:52.395Z,100212.48
2022-12-29T07:18:54.876Z,100211.64
2022-12-29T07:19:57.310Z,100213.47
2022-12-29T07:21:00.119Z,100208.12
2022-12-29T07:22:02.581Z,100203.52
2022-12-29T07:23:05.670Z,100201.78
2022-12-29T07:24:08.256Z,100205.44
2022-12-29T07:25:11.557Z,100198.27
2022-12-29T07:26:15.271Z,100205.44
2022-12-29T07:27:18.255Z,100206.29
2022-12-29T07:28:22.288Z,100208.97
2022-12-29T07:29:24.834Z,100208.97
2022-12-29T07:30:28.806Z,100210.80
2022-12-29T07:31:33.700Z,100217.84
2022-12-29T07:32:36.799Z,100215.16
2022-12-29T07:33:39.680Z,100211.73
2022-12-29T07:34:44.822Z,100213.47
2022-12-29T07:35:47.875Z,100208.22
2022-12-29T07:36:50.627Z,100213.47
2022-12-29T07:37:53.863Z,100199.20
2022-12-29T07:38:56.896Z,100190.33
2022-12-29T07:40:00.452Z,100193.01
2022-12-29T07:41:03.078Z,100193.01
2022-12-29T07:42:05.569Z,100201.88
2022-12-29T07:43:09.814Z,100201.88
2022-12-29T07:44:14.233Z,100197.52
2022-12-29T07:45:30.056Z,100196.63
2022-12-29T07:46:56.343Z,100190.33
2022-12-29T07:47:49.989Z,100188.60
2022-12-29T07:48:52.600Z,100184.13
2022-12-29T07:49:55.609Z,100185.92
2022-12-29T07:50:58.145Z,100185.08
2022-12-29T07:52:00.890Z,100184.13
2022-12-29T07:53:03.379Z,100185.92
2022-12-29T07:54:05.934Z,100178.78
2022-12-29T07:55:09.397Z,100177.90
2022-12-29T07:56:13.269Z,100177.90
2022-12-29T07:57:16.311Z,100171.70
2022-12-29T07:58:19.332Z,100177.05
2022-12-29T07:59:21.860Z,100170.82
2022-12-29T08:00:24.893Z,100179.73
2022-12-29T08:01:27.697Z,100179.73
2022-12-29T08:02:30.300Z,100176.11
2022-12-29T08:03:33.779Z,100172.55
2022-12-29T08:04:37.069Z,100172.55
2022-12-29T08:05:39.864Z,100173.43
2022-12-29T08:06:43.506Z,100173.43
2022-12-29T08:07:46.225Z,100154.38
2022-12-29T08:08:48.747Z,100171.60
2022-12-29T08:09:51.066Z,100170.66
2022-12-29T08:10:54.120Z,100169.77
2022-12-29T08:11:57.068Z,100177.80
2022-12-29T08:13:00.291Z,100172.45
2022-12-29T08:14:03.132Z,100172.45
2022-12-29T08:15:08.025Z,100175.13
2022-12-29T08:16:10.673Z,100176.95
2022-12-29T08:17:13.205Z,100175.13
2022-12-29T08:18:15.555Z,100173.33
2022-12-29T08:19:18.934Z,100177.80
2022-12-29T08:20:21.675Z,100177.80
2022-12-29T08:21:24.935Z,100180.48
2022-12-29T08:22:27.422Z,100178.68
2022-12-29T08:23:29.903Z,100180.48
2022-12-29T08:24:33.331Z,100182.20
2022-12-29T08:25:36.857Z,100181.36
2022-12-29T08:26:40.127Z,100176.00
2022-12-29T08:27:44.093Z,100178.68
2022-12-29T08:28:47.348Z,100176.00
2022-12-29T08:29:50.621Z,100176.86
2022-12-29T08:30:54.013Z,100180.38
2022-12-29T08:31:56.727Z,100183.05
2022-12-29T08:32:59.090Z,100180.38
2022-12-29T08:34:04.492Z,100175.02
2022-12-29T08:35:08.042Z,100176.86
2022-12-29T08:36:10.926Z,100171.50
2022-12-29T08:37:13.451Z,100171.50
2022-12-29T08:38:16.321Z,100171.50
2022-12-29T08:39:19.458Z,100173.23
2022-12-29T08:40:22.027Z,100174.18
2022-12-29T08:41:24.383Z,100175.02
2022-12-29T08:42:29.417Z,100175.02
2022-12-29T08:43:33.188Z,100168.83
2022-12-29T08:44:35.637Z,100167.98
2022-12-29T08:45:39.010Z,100164.42
2022-12-29T08:46:42.528Z,100167.09
2022-12-29T08:47:44.996Z,100178.68
2022-12-29T08:48:48.263Z,100182.30
2022-12-29T08:49:50.841Z,100188.60
2022-12-29T08:50:53.865Z,100190.43
2022-12-29T08:51:56.998Z,100194.91
2022-12-29T08:52:59.397Z,100203.91
2022-12-29T08:54:01.903Z,100187.85
2022-12-29T08:55:06.083Z,100187.08
2022-12-29T08:56:09.429Z,100179.14
2022-12-29T08:57:13.733Z,100183.75
2022-12-29T08:58:20.589Z,100189.16
2022-12-29T08:59:23.703Z,100181.34
2022-12-29T09:00:26.858Z,100181.53
2022-12-29T09:01:30.916Z,100186.98
2022-12-29T09:02:33.624Z,100177.23
2022-12-29T09:04:41.891Z,100182.05
2022-12-29T09:11:22.915Z,100182.44
2022-12-29T09:12:25.556Z,100171.81
2022-12-29T09:13:28.764Z,100180.91
2022-12-29T09:14:31.141Z,100177.45
2022-12-29T09:15:33.439Z,100174.18
2022-12-29T09:16:36.004Z,100172.73
2022-12-29T09:24:59.915Z,100163.27
2022-12-29T09:30:15.997Z,100157.25
2022-12-29T09:31:19.156Z,100160.02
2022-12-29T09:32:23.568Z,100155.70
2022-12-29T09:42:07.413Z,100143.75
2022-12-29T09:43:13.651Z,100138.41
2022-12-29T09:44:50.609Z,100140.23
2022-12-29T09:45:56.868Z,100135.74
2022-12-29T09:47:00.927Z,100149.27
2022-12-29T09:48:09.746Z,100147.45
2022-12-29T09:49:25.913Z,100141.08
2022-12-29T09:50:32.946Z,100143.75
2022-12-29T09:51:36.957Z,100132.22
2022-12-29T09:54:07.887Z,100122.91
2022-12-29T09:55:18.608Z,100127.92
2022-12-29T09:56:22.198Z,100128.67
2022-12-29T09:58:46.301Z,100118.16
2022-12-29T09:59:50.664Z,100125.91
2022-12-29T10:01:03.154Z,100125.84
2022-12-29T10:02:25.914Z,100121.27
2022-12-29T10:03:50.407Z,100121.17
2022-12-29T10:04:53.371Z,100121.45
2022-12-29T10:06:12.448Z,100116.95
2022-12-29T10:07:29.669Z,100112.50
2022-12-29T10:08:31.451Z,100119.53
2022-12-29T10:09:36.688Z,100111.52
2022-12-29T10:10:42.173Z,100108.28
2022-12-29T10:12:04.975Z,100112.84
2022-12-29T10:13:23.837Z,100106.55
2022-12-29T10:14:45.847Z,100097.76
2022-12-29T10:16:07.925Z,100100.52
2022-12-29T10:17:34.222Z,100099.95
2022-12-29T10:18:46.250Z,100093.55
2022-12-29T10:19:52.474Z,100093.63
2022-12-29T10:21:16.646Z,100103.65
2022-12-29T10:22:35.799Z,100095.64
2022-12-29T10:24:58.984Z,100096.91
2022-12-29T10:26:01.836Z,100100.19
2022-12-29T10:27:05.119Z,100094.19
2022-12-29T10:29:38.872Z,100077.52
2022-12-29T10:30:42.208Z,100079.81
2022-12-29T10:31:48.523Z,100077.98
2022-12-29T10:33:03.517Z,100083.33
2022-12-29T10:35:40.883Z,100076.39
2022-12-29T10:36:44.706Z,100081.41
2022-12-29T10:37:56.776Z,100076.02
2022-12-29T10:39:15.673Z,100081.17
2022-12-29T10:40:28.140Z,100078.41
2022-12-29T10:43:06.562Z,100071.22
2022-12-29T10:44:10.781Z,100078.50
2022-12-29T10:45:14.794Z,100065.33
2022-12-29T10:46:32.394Z,100074.37
2022-12-29T10:47:37.996Z,100080.66
2022-12-29T10:48:41.525Z,100072.73
2022-12-29T10:49:46.991Z,100073.08
2022-12-29T10:50:50.534Z,100073.08
2022-12-29T10:51:53.917Z,100075.66
2022-12-29T10:52:58.668Z,100070.31
2022-12-29T10:54:08.396Z,100079.11
2022-12-29T10:56:32.956Z,100078.31
2022-12-29T10:57:44.591Z,100076.26
2022-12-29T10:58:49.735Z,100066.61
2022-12-29T10:59:51.591Z,100073.68
2022-12-29T11:00:55.126Z,100074.62
2022-12-29T11:02:13.913Z,100072.13
2022-12-29T11:03:43.124Z,100070.68
2022-12-29T11:05:03.735Z,100071.71
2022-12-29T11:07:27.134Z,100063.09
2022-12-29T11:08:29.478Z,100065.77
2022-12-29T11:09:42.580Z,100071.28
2022-12-29T11:10:42.008Z,100069.41
2022-12-29T11:11:46.576Z,100061.49
2022-12-29T11:13:00.576Z,100070.34
2022-12-29T11:14:13.728Z,100069.31
2022-12-29T11:15:16.850Z,100067.50
2022-12-29T11:16:34.984Z,100060.43
2022-12-29T11:17:54.001Z,100060.28
2022-12-29T11:18:58.009Z,100052.09
2022-12-29T11:20:00.385Z,100051.91
2022-12-29T11:21:05.442Z,100052.78
2022-12-29T11:22:23.169Z,100051.15
2022-12-29T11:23:31.469Z,100051.91
2022-12-29T11:24:34.626Z,100050.02
2022-12-29T11:25:36.995Z,100044.69
2022-12-29T11:26:41.629Z,100042.77
2022-12-29T11:27:55.494Z,100038.38
2022-12-29T11:29:10.631Z,100048.95
2022-12-29T11:30:24.505Z,100056.03
2022-12-29T11:31:27.985Z,100055.18
2022-12-29T11:32:31.353Z,100049.94
2022-12-29T11:33:35.899Z,100058.79
2022-12-29T11:34:40.692Z,100050.87
2022-12-29T11:35:43.542Z,100061.22
2022-12-29T11:36:47.453Z,100045.62
2022-12-29T11:37:50.059Z,100046.56
2022-12-29T11:38:54.322Z,100054.48
2022-12-29T11:40:17.761Z,100054.48
2022-12-29T11:41:28.720Z,100048.20
2022-12-29T11:42:41.877Z,100047.27
2022-12-29T11:43:44.705Z,100042.68
2022-12-29T11:44:50.794Z,100049.75
2022-12-29T11:45:55.105Z,100047.92
2022-12-29T11:46:58.726Z,100049.66
2022-12-29T11:48:09.949Z,100064.64
2022-12-29T11:50:30.424Z,100071.05
2022-12-29T11:51:44.428Z,100072.55
2022-12-29T11:52:47.028Z,100058.27
2022-12-29T11:53:57.584Z,100067.03
2022-12-29T11:55:04.036Z,100071.52
2022-12-29T11:56:11.057Z,100069.70
2022-12-29T11:57:16.473Z,100083.74
2022-12-29T11:58:18.831Z,100089.84
2022-12-29T12:00:44.799Z,100078.54
2022-12-29T12:01:47.701Z,100070.30
2022-12-29T12:03:03.031Z,100080.98
2022-12-29T12:04:10.984Z,100069.45
2022-12-29T12:05:34.101Z,100065.81
2022-12-29T12:06:41.188Z,100070.20
2022-12-29T12:09:06.003Z,100065.28
2022-12-29T12:10:23.928Z,100075.73
2022-12-29T12:11:39.137Z,100077.52
2022-12-29T12:12:55.750Z,100091.75
2022-12-29T12:14:05.282Z,100073.16
2022-12-29T12:15:25.964Z,100079.25
2022-12-29T12:16:43.353Z,100074.80
2022-12-29T12:18:00.062Z,100072.13
2022-12-29T12:20:22.627Z,100073.29
2022-12-29T12:21:39.243Z,100071.24
2022-12-29T12:22:43.920Z,100068.57
2022-12-29T12:24:11.097Z,100071.24
2022-12-29T12:25:18.604Z,100072.03
2022-12-29T12:26:38.841Z,100072.55
2022-12-29T12:27:52.313Z,100072.65
2022-12-29T12:28:59.255Z,100078.27
2022-12-29T12:30:15.844Z,100079.38
2022-12-29T12:32:40.108Z,100077.05
2022-12-29T12:33:45.600Z,100078.72
2022-12-29T12:34:48.776Z,100080.69
2022-12-29T12:36:19.008Z,100072.77
2022-12-29T12:37:37.972Z,100080.77
2022-12-29T12:39:10.534Z,100087.90
2022-12-29T12:40:23.768Z,100083.73
2022-12-29T12:41:36.624Z,100085.83
2022-12-29T12:43:03.034Z,100081.84
2022-12-29T12:44:24.371Z,100073.34
2022-12-29T12:45:34.200Z,100077.80
2022-12-29T12:46:40.823Z,100072.28
2022-12-29T12:48:10.558Z,100068.45
2022-12-29T12:51:12.712Z,100061.64
2022-12-29T12:52:18.934Z,100066.50
2022-12-29T12:53:43.265Z,100068.70
2022-12-29T12:55:05.253Z,100062.25
2022-12-29T12:56:12.666Z,100063.70
2022-12-29T12:57:25.346Z,100056.30
2022-12-29T12:59:08.901Z,100054.30
2022-12-29T13:00:20.311Z,100063.85
2022-12-29T13:01:44.880Z,100058.17
2022-12-29T13:03:11.204Z,100043.79
2022-12-29T13:04:34.134Z,100051.61
2022-12-29T13:07:08.860Z,100040.71
2022-12-29T13:08:26.908Z,100043.92
2022-12-29T13:09:42.562Z,100038.48
2022-12-29T13:10:55.072Z,100040.02
2022-12-29T13:12:14.260Z,100036.22
2022-12-29T13:13:43.311Z,100036.02
2022-12-29T13:14:55.981Z,100041.17
2022-12-29T13:16:13.816Z,100029.45
2022-12-29T13:17:28.669Z,100040.05
2022-12-29T13:20:01.302Z,100026.66
2022-12-29T13:21:36.623Z,100033.44
2022-12-29T13:24:13.446Z,100030.67
2022-12-29T13:25:32.990Z,100036.57
2022-12-29T13:26:38.692Z,100038.20
2022-12-29T13:29:25.060Z,100038.98
2022-12-29T13:32:21.700Z,100040.52
2022-12-29T13:33:37.746Z,100049.19
2022-12-29T13:35:03.299Z,100044.63
2022-12-29T13:36:16.359Z,100047.20
2022-12-29T13:37:20.652Z,100056.95
2022-12-29T13:38:33.886Z,100056.84
2022-12-29T13:41:11.975Z,100069.46
2022-12-29T13:42:15.690Z,100067.44
2022-12-29T13:43:19.735Z,100072.78
2022-12-29T13:44:39.671Z,100070.02
2022-12-29T13:45:42.790Z,100083.28
2022-12-29T13:46:47.144Z,100066.30
2022-12-29T13:47:54.177Z,100058.28
2022-12-29T13:49:15.194Z,100064.37
2022-12-29T13:50:20.057Z,100054.56
2022-12-29T13:51:27.665Z,100059.91
2022-12-29T13:52:35.225Z,100055.31
2022-12-29T13:55:07.718Z,100049.11
2022-12-29T13:56:18.925Z,100057.80
2022-12-29T13:57:42.895Z,100066.59
2022-12-29T13:58:54.715Z,100058.57
2022-12-29T14:00:16.619Z,100057.52
2022-12-29T14:01:25.608Z,100053.03
2022-12-29T14:02:47.638Z,100054.75
2022-12-29T14:03:58.845Z,100051.14
2022-12-29T14:05:04.449Z,100053.81
2022-12-29T14:06:16.784Z,100056.48
2022-12-29T14:07:19.240Z,100061.73
2022-12-29T14:08:21.585Z,100050.16
2022-12-29T14:10:53.723Z,100053.89
2022-12-29T14:11:58.033Z,100058.17